sensor_id;sensor_type;location;lat;lon;timestamp;P1;durP1;ratioP1;P2;durP2;ratioP2
71048;SDS011;58704;53.358;-6.238;2022-12-18T00:00:27;25.37;;;12.57;;
71048;SDS011;58704;53.358;-6.238;2022-12-18T00:02:52;24.83;;;11.93;;
71048;SDS011;58704;53.358;-6.238;2022-12-18T00:05:17;24.07;;;12.00;;
71048;SDS011;58704;53.358;-6.238;2022-12-18T00:07:43;23.33;;;11.80;;
71048;SDS011;58704;53.358;-6.238;2022-12-18T00:10:08;25.73;;;12.40;;
71048;SDS011;58704;53.358;-6.238;2022-12-18T00:12:34;21.20;;;11.40;;
71048;SDS011;58704;53.358;-6.238;2022-12-18T00:14:59;20.40;;;11.37;;
71048;SDS011;58704;53.358;-6.238;2022-12-18T00:17:25;25.23;;;12.67;;
71048;SDS011;58704;53.358;-6.238;2022-12-18T00:19:50;21.77;;;11.80;;
71048;SDS011;58704;53.358;-6.238;2022-12-18T00:22:15;20.17;;;10.57;;
71048;SDS011;58704;53.358;-6.238;2022-12-18T00:24:41;21.43;;;11.90;;
71048;SDS011;58704;53.358;-6.238;2022-12-18T00:27:06;22.37;;;11.83;;
71048;SDS011;58704;53.358;-6.238;2022-12-18T00:29:32;21.92;;;11.80;;
71048;SDS011;58704;53.358;-6.238;2022-12-18T00:31:57;17.23;;;9.83;;
71048;SDS011;58704;53.358;-6.238;2022-12-18T00:34:23;20.33;;;9.40;;
71048;SDS011;58704;53.358;-6.238;2022-12-18T00:36:48;18.13;;;10.20;;
71048;SDS011;58704;53.358;-6.238;2022-12-18T00:39:13;23.42;;;11.48;;
71048;SDS011;58704;53.358;-6.238;2022-12-18T00:41:39;18.87;;;10.43;;
71048;SDS011;58704;53.358;-6.238;2022-12-18T00:44:23;18.45;;;9.82;;
71048;SDS011;58704;53.358;-6.238;2022-12-18T00:46:48;16.47;;;9.63;;
71048;SDS011;58704;53.358;-6.238;2022-12-18T00:49:15;17.97;;;9.97;;
71048;SDS011;58704;53.358;-6.238;2022-12-18T00:51:41;21.45;;;9.77;;
71048;SDS011;58704;53.358;-6.238;2022-12-18T00:54:06;15.73;;;9.13;;
71048;SDS011;58704;53.358;-6.238;2022-12-18T00:56:32;14.98;;;8.45;;
71048;SDS011;58704;53.358;-6.238;2022-12-18T00:58:57;14.13;;;7.90;;
71048;SDS011;58704;53.358;-6.238;2022-12-18T01:01:23;15.80;;;7.43;;
71048;SDS011;58704;53.358;-6.238;2022-12-18T01:03:48;15.07;;;7.33;;
71048;SDS011;58704;53.358;-6.238;2022-12-18T01:06:14;10.67;;;6.20;;
71048;SDS011;58704;53.358;-6.238;2022-12-18T01:08:41;12.32;;;6.90;;
71048;SDS011;58704;53.358;-6.238;2022-12-18T01:11:07;12.60;;;5.80;;
71048;SDS011;58704;53.358;-6.238;2022-12-18T01:13:36;11.93;;;6.50;;
71048;SDS011;58704;53.358;-6.238;2022-12-18T01:16:02;15.50;;;6.60;;
71048;SDS011;58704;53.358;-6.238;2022-12-18T01:18:28;14.73;;;6.05;;
71048;SDS011;58704;53.358;-6.238;2022-12-18T01:20:53;11.70;;;5.80;;
71048;SDS011;58704;53.358;-6.238;2022-12-18T01:23:19;8.70;;;4.77;;
71048;SDS011;58704;53.358;-6.238;2022-12-18T01:25:44;11.03;;;4.70;;
71048;SDS011;58704;53.358;-6.238;2022-12-18T01:28:09;7.82;;;3.53;;
71048;SDS011;58704;53.358;-6.238;2022-12-18T01:30:35;12.73;;;4.30;;
71048;SDS011;58704;53.358;-6.238;2022-12-18T01:33:00;25.93;;;6.93;;
71048;SDS011;58704;53.358;-6.238;2022-12-18T01:35:26;11.13;;;3.50;;
71048;SDS011;58704;53.358;-6.238;2022-12-18T01:37:54;12.77;;;3.97;;
71048;SDS011;58704;53.358;-6.238;2022-12-18T01:40:20;25.40;;;6.03;;
71048;SDS011;58704;53.358;-6.238;2022-12-18T01:42:49;12.73;;;3.28;;
71048;SDS011;58704;53.358;-6.238;2022-12-18T01:47:49;8.63;;;3.07;;
71048;SDS011;58704;53.358;-6.238;2022-12-18T01:50:23;8.80;;;3.00;;
71048;SDS011;58704;53.358;-6.238;2022-12-18T01:52:54;11.52;;;3.05;;
71048;SDS011;58704;53.358;-6.238;2022-12-18T01:55:23;5.68;;;2.80;;
71048;SDS011;58704;53.358;-6.238;2022-12-18T01:57:55;9.98;;;3.25;;
71048;SDS011;58704;53.358;-6.238;2022-12-18T02:00:22;10.23;;;3.07;;
71048;SDS011;58704;53.358;-6.238;2022-12-18T02:02:48;7.10;;;2.97;;
71048;SDS011;58704;53.358;-6.238;2022-12-18T02:05:18;7.73;;;2.87;;
71048;SDS011;58704;53.358;-6.238;2022-12-18T02:07:58;6.68;;;2.95;;
71048;SDS011;58704;53.358;-6.238;2022-12-18T02:18:54;9.33;;;2.87;;
71048;SDS011;58704;53.358;-6.238;2022-12-18T02:27:04;7.97;;;1.92;;
71048;SDS011;58704;53.358;-6.238;2022-12-18T02:29:32;7.10;;;1.88;;
71048;SDS011;58704;53.358;-6.238;2022-12-18T02:32:02;5.20;;;1.37;;
71048;SDS011;58704;53.358;-6.238;2022-12-18T02:34:31;5.53;;;1.73;;
71048;SDS011;58704;53.358;-6.238;2022-12-18T02:36:58;16.85;;;1.70;;
71048;SDS011;58704;53.358;-6.238;2022-12-18T02:39:25;7.95;;;2.35;;
71048;SDS011;58704;53.358;-6.238;2022-12-18T02:41:52;2.75;;;1.63;;
71048;SDS011;58704;53.358;-6.238;2022-12-18T02:44:17;12.77;;;2.70;;
71048;SDS011;58704;53.358;-6.238;2022-12-18T02:46:44;8.30;;;1.97;;
71048;SDS011;58704;53.358;-6.238;2022-12-18T02:51:44;14.40;;;2.00;;
71048;SDS011;58704;53.358;-6.238;2022-12-18T02:54:21;16.33;;;2.67;;
71048;SDS011;58704;53.358;-6.238;2022-12-18T02:56:51;12.50;;;2.00;;
71048;SDS011;58704;53.358;-6.238;2022-12-18T02:59:23;18.98;;;2.30;;
71048;SDS011;58704;53.358;-6.238;2022-12-18T03:04:48;14.27;;;2.20;;
71048;SDS011;58704;53.358;-6.238;2022-12-18T03:07:23;13.35;;;2.05;;
71048;SDS011;58704;53.358;-6.238;2022-12-18T03:09:53;12.10;;;2.42;;
71048;SDS011;58704;53.358;-6.238;2022-12-18T03:12:35;11.95;;;2.30;;
71048;SDS011;58704;53.358;-6.238;2022-12-18T03:15:08;12.82;;;2.40;;
71048;SDS011;58704;53.358;-6.238;2022-12-18T03:17:37;10.00;;;2.70;;
71048;SDS011;58704;53.358;-6.238;2022-12-18T03:20:12;8.80;;;2.72;;
71048;SDS011;58704;53.358;-6.238;2022-12-18T03:22:40;13.38;;;2.45;;
71048;SDS011;58704;53.358;-6.238;2022-12-18T03:25:08;12.65;;;2.70;;
71048;SDS011;58704;53.358;-6.238;2022-12-18T03:27:38;12.95;;;3.20;;
71048;SDS011;58704;53.358;-6.238;2022-12-18T03:30:08;14.00;;;3.13;;
71048;SDS011;58704;53.358;-6.238;2022-12-18T03:35:31;13.35;;;2.80;;
71048;SDS011;58704;53.358;-6.238;2022-12-18T03:38:00;10.02;;;3.50;;
71048;SDS011;58704;53.358;-6.238;2022-12-18T03:40:27;10.53;;;3.03;;
71048;SDS011;58704;53.358;-6.238;2022-12-18T03:45:50;8.88;;;3.30;;
71048;SDS011;58704;53.358;-6.238;2022-12-18T03:48:20;10.37;;;3.23;;
71048;SDS011;58704;53.358;-6.238;2022-12-18T03:55:50;11.20;;;4.43;;
71048;SDS011;58704;53.358;-6.238;2022-12-18T03:58:17;10.13;;;4.10;;
71048;SDS011;58704;53.358;-6.238;2022-12-18T04:00:46;16.90;;;5.03;;
71048;SDS011;58704;53.358;-6.238;2022-12-18T04:03:13;16.88;;;5.50;;
71048;SDS011;58704;53.358;-6.238;2022-12-18T04:05:39;16.52;;;6.40;;
71048;SDS011;58704;53.358;-6.238;2022-12-18T04:08:06;20.15;;;5.57;;
71048;SDS011;58704;53.358;-6.238;2022-12-18T04:10:31;15.87;;;5.73;;
71048;SDS011;58704;53.358;-6.238;2022-12-18T04:12:57;17.93;;;6.23;;
71048;SDS011;58704;53.358;-6.238;2022-12-18T04:15:22;18.98;;;6.10;;
71048;SDS011;58704;53.358;-6.238;2022-12-18T04:17:48;18.20;;;6.10;;
71048;SDS011;58704;53.358;-6.238;2022-12-18T04:20:14;19.75;;;6.13;;
71048;SDS011;58704;53.358;-6.238;2022-12-18T04:22:41;25.73;;;6.78;;
71048;SDS011;58704;53.358;-6.238;2022-12-18T04:25:06;17.45;;;5.78;;
71048;SDS011;58704;53.358;-6.238;2022-12-18T04:27:32;21.97;;;6.20;;
71048;SDS011;58704;53.358;-6.238;2022-12-18T04:29:58;19.77;;;6.40;;
71048;SDS011;58704;53.358;-6.238;2022-12-18T04:32:23;20.13;;;5.63;;
71048;SDS011;58704;53.358;-6.238;2022-12-18T04:34:48;20.60;;;5.83;;
71048;SDS011;58704;53.358;-6.238;2022-12-18T04:37:14;18.33;;;5.87;;
71048;SDS011;58704;53.358;-6.238;2022-12-18T04:39:39;21.42;;;6.15;;
71048;SDS011;58704;53.358;-6.238;2022-12-18T04:42:05;17.83;;;5.80;;
71048;SDS011;58704;53.358;-6.238;2022-12-18T04:44:30;23.73;;;6.63;;
71048;SDS011;58704;53.358;-6.238;2022-12-18T04:46:56;18.17;;;6.07;;
71048;SDS011;58704;53.358;-6.238;2022-12-18T04:49:21;23.53;;;6.27;;
71048;SDS011;58704;53.358;-6.238;2022-12-18T04:51:47;18.60;;;6.22;;
71048;SDS011;58704;53.358;-6.238;2022-12-18T04:54:12;22.70;;;6.67;;
71048;SDS011;58704;53.358;-6.238;2022-12-18T04:56:37;19.73;;;6.27;;
71048;SDS011;58704;53.358;-6.238;2022-12-18T04:59:06;21.30;;;6.78;;
71048;SDS011;58704;53.358;-6.238;2022-12-18T05:01:31;24.43;;;7.73;;
71048;SDS011;58704;53.358;-6.238;2022-12-18T05:03:56;26.03;;;6.50;;
71048;SDS011;58704;53.358;-6.238;2022-12-18T05:06:22;22.93;;;6.30;;
71048;SDS011;58704;53.358;-6.238;2022-12-18T05:08:47;20.27;;;6.17;;
71048;SDS011;58704;53.358;-6.238;2022-12-18T05:11:13;19.07;;;5.80;;
71048;SDS011;58704;53.358;-6.238;2022-12-18T05:13:43;24.33;;;6.78;;
71048;SDS011;58704;53.358;-6.238;2022-12-18T05:16:09;20.20;;;6.57;;
71048;SDS011;58704;53.358;-6.238;2022-12-18T05:18:35;29.73;;;7.43;;
71048;SDS011;58704;53.358;-6.238;2022-12-18T05:21:01;22.20;;;6.28;;
71048;SDS011;58704;53.358;-6.238;2022-12-18T05:23:27;21.50;;;5.60;;
71048;SDS011;58704;53.358;-6.238;2022-12-18T05:25:53;17.17;;;5.83;;
71048;SDS011;58704;53.358;-6.238;2022-12-18T05:28:20;16.75;;;5.15;;
71048;SDS011;58704;53.358;-6.238;2022-12-18T05:30:53;15.20;;;5.82;;
71048;SDS011;58704;53.358;-6.238;2022-12-18T05:33:20;15.18;;;5.03;;
71048;SDS011;58704;53.358;-6.238;2022-12-18T05:35:53;20.47;;;5.20;;
71048;SDS011;58704;53.358;-6.238;2022-12-18T05:38:20;21.20;;;6.35;;
71048;SDS011;58704;53.358;-6.238;2022-12-18T05:40:47;24.52;;;6.22;;
71048;SDS011;58704;53.358;-6.238;2022-12-18T05:43:13;18.77;;;5.55;;
71048;SDS011;58704;53.358;-6.238;2022-12-18T05:45:38;19.27;;;5.03;;
71048;SDS011;58704;53.358;-6.238;2022-12-18T05:48:04;17.27;;;5.28;;
71048;SDS011;58704;53.358;-6.238;2022-12-18T05:50:30;17.13;;;4.87;;
71048;SDS011;58704;53.358;-6.238;2022-12-18T05:52:55;18.73;;;5.07;;
71048;SDS011;58704;53.358;-6.238;2022-12-18T05:55:21;15.87;;;4.90;;
71048;SDS011;58704;53.358;-6.238;2022-12-18T05:57:46;20.30;;;5.40;;
71048;SDS011;58704;53.358;-6.238;2022-12-18T06:00:12;23.03;;;5.33;;
71048;SDS011;58704;53.358;-6.238;2022-12-18T06:02:38;21.17;;;4.97;;
71048;SDS011;58704;53.358;-6.238;2022-12-18T06:05:03;20.17;;;5.40;;
71048;SDS011;58704;53.358;-6.238;2022-12-18T06:07:29;17.20;;;5.17;;
71048;SDS011;58704;53.358;-6.238;2022-12-18T06:09:54;19.47;;;5.60;;
71048;SDS011;58704;53.358;-6.238;2022-12-18T06:12:20;21.88;;;5.60;;
71048;SDS011;58704;53.358;-6.238;2022-12-18T06:14:46;18.07;;;5.70;;
71048;SDS011;58704;53.358;-6.238;2022-12-18T06:17:11;18.10;;;5.82;;
71048;SDS011;58704;53.358;-6.238;2022-12-18T06:19:36;22.00;;;5.77;;
71048;SDS011;58704;53.358;-6.238;2022-12-18T06:22:02;19.73;;;5.40;;
71048;SDS011;58704;53.358;-6.238;2022-12-18T06:24:27;20.40;;;5.67;;
71048;SDS011;58704;53.358;-6.238;2022-12-18T06:26:53;21.20;;;5.00;;
71048;SDS011;58704;53.358;-6.238;2022-12-18T06:29:18;19.10;;;5.50;;
71048;SDS011;58704;53.358;-6.238;2022-12-18T06:31:43;18.03;;;4.90;;
71048;SDS011;58704;53.358;-6.238;2022-12-18T06:34:09;22.27;;;5.63;;
71048;SDS011;58704;53.358;-6.238;2022-12-18T06:36:34;20.47;;;4.90;;
71048;SDS011;58704;53.358;-6.238;2022-12-18T06:39:00;14.27;;;4.50;;
71048;SDS011;58704;53.358;-6.238;2022-12-18T06:41:25;13.73;;;4.27;;
71048;SDS011;58704;53.358;-6.238;2022-12-18T06:43:51;12.43;;;4.22;;
71048;SDS011;58704;53.358;-6.238;2022-12-18T06:46:16;10.90;;;3.40;;
71048;SDS011;58704;53.358;-6.238;2022-12-18T06:48:42;9.87;;;3.83;;
71048;SDS011;58704;53.358;-6.238;2022-12-18T06:51:07;14.07;;;3.87;;
71048;SDS011;58704;53.358;-6.238;2022-12-18T06:53:33;10.32;;;3.72;;
71048;SDS011;58704;53.358;-6.238;2022-12-18T06:58:31;9.93;;;3.25;;
71048;SDS011;58704;53.358;-6.238;2022-12-18T07:01:00;15.90;;;4.23;;
71048;SDS011;58704;53.358;-6.238;2022-12-18T07:03:26;10.68;;;3.08;;
71048;SDS011;58704;53.358;-6.238;2022-12-18T07:05:52;11.60;;;3.00;;
71048;SDS011;58704;53.358;-6.238;2022-12-18T07:08:17;9.98;;;2.92;;
71048;SDS011;58704;53.358;-6.238;2022-12-18T07:10:43;9.83;;;2.30;;
71048;SDS011;58704;53.358;-6.238;2022-12-18T07:13:08;17.17;;;3.30;;
71048;SDS011;58704;53.358;-6.238;2022-12-18T07:15:34;14.50;;;3.17;;
71048;SDS011;58704;53.358;-6.238;2022-12-18T07:17:59;12.87;;;3.40;;
71048;SDS011;58704;53.358;-6.238;2022-12-18T07:20:24;10.83;;;3.20;;
71048;SDS011;58704;53.358;-6.238;2022-12-18T07:22:50;11.00;;;3.13;;
71048;SDS011;58704;53.358;-6.238;2022-12-18T07:25:15;10.35;;;3.33;;
71048;SDS011;58704;53.358;-6.238;2022-12-18T07:27:41;15.40;;;4.00;;
71048;SDS011;58704;53.358;-6.238;2022-12-18T07:30:06;8.97;;;3.43;;
71048;SDS011;58704;53.358;-6.238;2022-12-18T07:32:32;12.48;;;3.55;;
71048;SDS011;58704;53.358;-6.238;2022-12-18T07:34:58;17.53;;;3.50;;
71048;SDS011;58704;53.358;-6.238;2022-12-18T07:37:23;12.97;;;4.07;;
71048;SDS011;58704;53.358;-6.238;2022-12-18T07:39:49;17.40;;;4.03;;
71048;SDS011;58704;53.358;-6.238;2022-12-18T07:42:14;16.30;;;4.17;;
71048;SDS011;58704;53.358;-6.238;2022-12-18T07:44:58;11.70;;;3.85;;
71048;SDS011;58704;53.358;-6.238;2022-12-18T07:47:24;21.50;;;4.77;;
71048;SDS011;58704;53.358;-6.238;2022-12-18T07:49:50;13.88;;;4.40;;
71048;SDS011;58704;53.358;-6.238;2022-12-18T07:52:15;13.93;;;4.20;;
71048;SDS011;58704;53.358;-6.238;2022-12-18T07:54:41;16.80;;;4.07;;
71048;SDS011;58704;53.358;-6.238;2022-12-18T07:57:06;12.77;;;3.93;;
71048;SDS011;58704;53.358;-6.238;2022-12-18T07:59:32;14.23;;;4.37;;
71048;SDS011;58704;53.358;-6.238;2022-12-18T08:01:58;15.85;;;4.40;;
71048;SDS011;58704;53.358;-6.238;2022-12-18T08:04:24;17.90;;;5.60;;
71048;SDS011;58704;53.358;-6.238;2022-12-18T08:06:49;18.42;;;5.75;;
71048;SDS011;58704;53.358;-6.238;2022-12-18T08:09:15;15.87;;;5.57;;
71048;SDS011;58704;53.358;-6.238;2022-12-18T08:11:40;11.83;;;5.43;;
71048;SDS011;58704;53.358;-6.238;2022-12-18T08:14:06;16.57;;;4.90;;
71048;SDS011;58704;53.358;-6.238;2022-12-18T08:16:31;11.43;;;4.85;;
71048;SDS011;58704;53.358;-6.238;2022-12-18T08:18:56;22.80;;;5.53;;
71048;SDS011;58704;53.358;-6.238;2022-12-18T08:21:23;20.83;;;6.27;;
71048;SDS011;58704;53.358;-6.238;2022-12-18T08:23:50;21.35;;;5.25;;
71048;SDS011;58704;53.358;-6.238;2022-12-18T08:26:16;20.40;;;5.68;;
71048;SDS011;58704;53.358;-6.238;2022-12-18T08:28:42;17.30;;;5.40;;
71048;SDS011;58704;53.358;-6.238;2022-12-18T08:31:08;22.60;;;5.87;;
71048;SDS011;58704;53.358;-6.238;2022-12-18T08:33:34;20.02;;;5.53;;
71048;SDS011;58704;53.358;-6.238;2022-12-18T08:36:01;15.50;;;6.13;;
71048;SDS011;58704;53.358;-6.238;2022-12-18T08:38:27;23.05;;;5.68;;
71048;SDS011;58704;53.358;-6.238;2022-12-18T08:40:59;29.00;;;7.73;;
71048;SDS011;58704;53.358;-6.238;2022-12-18T08:43:32;17.98;;;5.63;;
71048;SDS011;58704;53.358;-6.238;2022-12-18T08:46:19;18.98;;;6.90;;
71048;SDS011;58704;53.358;-6.238;2022-12-18T08:48:54;24.45;;;7.57;;
71048;SDS011;58704;53.358;-6.238;2022-12-18T08:51:35;18.37;;;6.50;;
71048;SDS011;58704;53.358;-6.238;2022-12-18T08:54:14;22.58;;;6.25;;
71048;SDS011;58704;53.358;-6.238;2022-12-18T08:56:40;22.87;;;6.70;;
71048;SDS011;58704;53.358;-6.238;2022-12-18T08:59:08;25.93;;;7.60;;
71048;SDS011;58704;53.358;-6.238;2022-12-18T09:01:36;30.02;;;8.23;;
71048;SDS011;58704;53.358;-6.238;2022-12-18T09:04:04;26.77;;;8.15;;
71048;SDS011;58704;53.358;-6.238;2022-12-18T09:06:30;23.87;;;8.53;;
71048;SDS011;58704;53.358;-6.238;2022-12-18T09:08:58;18.73;;;7.13;;
71048;SDS011;58704;53.358;-6.238;2022-12-18T09:11:29;29.98;;;8.40;;
71048;SDS011;58704;53.358;-6.238;2022-12-18T09:13:55;18.70;;;7.45;;
71048;SDS011;58704;53.358;-6.238;2022-12-18T09:16:22;19.98;;;7.78;;
71048;SDS011;58704;53.358;-6.238;2022-12-18T09:18:59;26.30;;;8.53;;
71048;SDS011;58704;53.358;-6.238;2022-12-18T09:21:37;27.98;;;7.78;;
71048;SDS011;58704;53.358;-6.238;2022-12-18T09:24:14;33.65;;;8.35;;
71048;SDS011;58704;53.358;-6.238;2022-12-18T09:26:42;26.02;;;7.50;;
71048;SDS011;58704;53.358;-6.238;2022-12-18T09:29:17;22.42;;;6.85;;
71048;SDS011;58704;53.358;-6.238;2022-12-18T09:31:43;26.17;;;6.20;;
71048;SDS011;58704;53.358;-6.238;2022-12-18T09:34:16;17.73;;;6.90;;
71048;SDS011;58704;53.358;-6.238;2022-12-18T09:36:41;25.80;;;7.47;;
71048;SDS011;58704;53.358;-6.238;2022-12-18T09:39:10;24.00;;;7.43;;
71048;SDS011;58704;53.358;-6.238;2022-12-18T09:44:35;17.42;;;6.00;;
71048;SDS011;58704;53.358;-6.238;2022-12-18T09:49:58;28.07;;;6.93;;
71048;SDS011;58704;53.358;-6.238;2022-12-18T09:52:30;26.38;;;6.28;;
71048;SDS011;58704;53.358;-6.238;2022-12-18T09:57:57;21.35;;;6.18;;
71048;SDS011;58704;53.358;-6.238;2022-12-18T10:00:30;21.08;;;5.82;;
71048;SDS011;58704;53.358;-6.238;2022-12-18T10:03:15;16.33;;;6.27;;
71048;SDS011;58704;53.358;-6.238;2022-12-18T10:06:13;16.55;;;5.63;;
71048;SDS011;58704;53.358;-6.238;2022-12-18T10:16:36;22.07;;;6.33;;
71048;SDS011;58704;53.358;-6.238;2022-12-18T10:19:56;16.17;;;6.15;;
71048;SDS011;58704;53.358;-6.238;2022-12-18T10:25:06;17.67;;;6.47;;
71048;SDS011;58704;53.358;-6.238;2022-12-18T10:27:44;23.73;;;8.05;;
71048;SDS011;58704;53.358;-6.238;2022-12-18T10:30:20;27.80;;;7.30;;
71048;SDS011;58704;53.358;-6.238;2022-12-18T10:32:49;22.65;;;7.55;;
71048;SDS011;58704;53.358;-6.238;2022-12-18T10:35:24;20.17;;;7.13;;
71048;SDS011;58704;53.358;-6.238;2022-12-18T10:38:06;24.13;;;7.03;;
71048;SDS011;58704;53.358;-6.238;2022-12-18T10:40:49;16.95;;;6.95;;
71048;SDS011;58704;53.358;-6.238;2022-12-18T10:43:28;19.83;;;7.07;;
71048;SDS011;58704;53.358;-6.238;2022-12-18T10:46:05;22.52;;;6.57;;
71048;SDS011;58704;53.358;-6.238;2022-12-18T10:48:55;24.00;;;6.72;;
71048;SDS011;58704;53.358;-6.238;2022-12-18T10:51:27;17.40;;;6.13;;
71048;SDS011;58704;53.358;-6.238;2022-12-18T10:54:02;19.70;;;7.53;;
71048;SDS011;58704;53.358;-6.238;2022-12-18T10:56:33;18.75;;;6.85;;
71048;SDS011;58704;53.358;-6.238;2022-12-18T10:59:17;15.60;;;6.07;;
71048;SDS011;58704;53.358;-6.238;2022-12-18T11:01:56;19.30;;;7.45;;
71048;SDS011;58704;53.358;-6.238;2022-12-18T11:04:28;21.00;;;7.07;;
71048;SDS011;58704;53.358;-6.238;2022-12-18T11:07:02;22.58;;;7.60;;
71048;SDS011;58704;53.358;-6.238;2022-12-18T11:09:30;21.60;;;6.80;;
71048;SDS011;58704;53.358;-6.238;2022-12-18T11:12:19;23.55;;;7.50;;
71048;SDS011;58704;53.358;-6.238;2022-12-18T11:17:19;22.97;;;7.53;;
71048;SDS011;58704;53.358;-6.238;2022-12-18T11:19:46;25.30;;;9.13;;
71048;SDS011;58704;53.358;-6.238;2022-12-18T11:22:19;30.55;;;8.07;;
71048;SDS011;58704;53.358;-6.238;2022-12-18T11:24:56;22.27;;;7.00;;
71048;SDS011;58704;53.358;-6.238;2022-12-18T11:27:24;27.52;;;9.10;;
71048;SDS011;58704;53.358;-6.238;2022-12-18T11:29:50;22.60;;;7.37;;
71048;SDS011;58704;53.358;-6.238;2022-12-18T11:32:27;16.38;;;5.82;;
71048;SDS011;58704;53.358;-6.238;2022-12-18T11:35:34;28.73;;;8.30;;
71048;SDS011;58704;53.358;-6.238;2022-12-18T11:44:25;14.43;;;5.18;;
71048;SDS011;58704;53.358;-6.238;2022-12-18T11:46:55;25.98;;;6.65;;
71048;SDS011;58704;53.358;-6.238;2022-12-18T11:49:26;21.48;;;6.03;;
71048;SDS011;58704;53.358;-6.238;2022-12-18T11:54:42;19.63;;;4.65;;
71048;SDS011;58704;53.358;-6.238;2022-12-18T11:57:14;15.30;;;4.77;;
71048;SDS011;58704;53.358;-6.238;2022-12-18T11:59:56;14.27;;;3.97;;
71048;SDS011;58704;53.358;-6.238;2022-12-18T12:07:56;12.75;;;3.75;;
71048;SDS011;58704;53.358;-6.238;2022-12-18T12:13:23;11.23;;;3.30;;
71048;SDS011;58704;53.358;-6.238;2022-12-18T12:40:11;19.42;;;3.35;;
71048;SDS011;58704;53.358;-6.238;2022-12-18T12:42:40;9.88;;;3.10;;
71048;SDS011;58704;53.358;-6.238;2022-12-18T12:45:28;10.70;;;2.95;;
71048;SDS011;58704;53.358;-6.238;2022-12-18T12:47:58;30.38;;;8.10;;
71048;SDS011;58704;53.358;-6.238;2022-12-18T12:50:26;13.30;;;2.97;;
71048;SDS011;58704;53.358;-6.238;2022-12-18T12:52:53;10.23;;;2.90;;
71048;SDS011;58704;53.358;-6.238;2022-12-18T12:55:20;9.63;;;2.38;;
71048;SDS011;58704;53.358;-6.238;2022-12-18T13:00:29;10.50;;;3.28;;
71048;SDS011;58704;53.358;-6.238;2022-12-18T13:08:27;9.77;;;3.28;;
71048;SDS011;58704;53.358;-6.238;2022-12-18T13:10:54;7.57;;;2.50;;
71048;SDS011;58704;53.358;-6.238;2022-12-18T13:13:58;8.85;;;2.40;;
71048;SDS011;58704;53.358;-6.238;2022-12-18T13:16:24;15.10;;;3.00;;
71048;SDS011;58704;53.358;-6.238;2022-12-18T13:18:55;8.68;;;2.40;;
71048;SDS011;58704;53.358;-6.238;2022-12-18T13:21:30;10.37;;;2.20;;
71048;SDS011;58704;53.358;-6.238;2022-12-18T13:23:56;9.27;;;2.05;;
71048;SDS011;58704;53.358;-6.238;2022-12-18T13:26:39;8.65;;;2.33;;
71048;SDS011;58704;53.358;-6.238;2022-12-18T13:29:05;8.13;;;2.60;;
71048;SDS011;58704;53.358;-6.238;2022-12-18T13:34:22;7.53;;;2.58;;
71048;SDS011;58704;53.358;-6.238;2022-12-18T13:36:52;5.60;;;1.73;;
71048;SDS011;58704;53.358;-6.238;2022-12-18T13:41:44;7.40;;;2.20;;
71048;SDS011;58704;53.358;-6.238;2022-12-18T13:47:05;6.90;;;1.65;;
71048;SDS011;58704;53.358;-6.238;2022-12-18T13:49:51;8.43;;;2.17;;
71048;SDS011;58704;53.358;-6.238;2022-12-18T13:52:24;10.03;;;2.23;;
71048;SDS011;58704;53.358;-6.238;2022-12-18T13:54:51;7.60;;;1.98;;
71048;SDS011;58704;53.358;-6.238;2022-12-18T13:57:29;6.63;;;2.03;;
71048;SDS011;58704;53.358;-6.238;2022-12-18T13:59:57;12.47;;;3.30;;
71048;SDS011;58704;53.358;-6.238;2022-12-18T14:02:24;7.90;;;2.13;;
71048;SDS011;58704;53.358;-6.238;2022-12-18T14:04:51;6.22;;;2.15;;
71048;SDS011;58704;53.358;-6.238;2022-12-18T14:07:21;9.60;;;3.00;;
71048;SDS011;58704;53.358;-6.238;2022-12-18T14:09:52;6.47;;;1.73;;
71048;SDS011;58704;53.358;-6.238;2022-12-18T14:12:23;7.37;;;2.73;;
71048;SDS011;58704;53.358;-6.238;2022-12-18T14:15:31;10.43;;;2.20;;
71048;SDS011;58704;53.358;-6.238;2022-12-18T14:20:45;4.22;;;1.88;;
71048;SDS011;58704;53.358;-6.238;2022-12-18T14:25:58;4.60;;;1.63;;
71048;SDS011;58704;53.358;-6.238;2022-12-18T14:28:23;8.48;;;2.40;;
71048;SDS011;58704;53.358;-6.238;2022-12-18T14:30:50;12.68;;;3.05;;
71048;SDS011;58704;53.358;-6.238;2022-12-18T14:33:17;4.00;;;1.70;;
71048;SDS011;58704;53.358;-6.238;2022-12-18T14:35:57;11.45;;;4.70;;
71048;SDS011;58704;53.358;-6.238;2022-12-18T14:38:26;32.33;;;19.98;;
71048;SDS011;58704;53.358;-6.238;2022-12-18T14:43:38;6.43;;;2.05;;
71048;SDS011;58704;53.358;-6.238;2022-12-18T14:46:06;8.07;;;2.35;;
71048;SDS011;58704;53.358;-6.238;2022-12-18T14:48:52;8.70;;;2.38;;
71048;SDS011;58704;53.358;-6.238;2022-12-18T14:56:32;7.05;;;2.58;;
71048;SDS011;58704;53.358;-6.238;2022-12-18T14:59:11;8.40;;;2.13;;
71048;SDS011;58704;53.358;-6.238;2022-12-18T15:02:24;11.48;;;4.43;;
71048;SDS011;58704;53.358;-6.238;2022-12-18T15:04:45;20.17;;;7.73;;
71048;SDS011;58704;53.358;-6.238;2022-12-18T15:07:19;13.00;;;6.90;;
71048;SDS011;58704;53.358;-6.238;2022-12-18T15:12:43;11.65;;;4.78;;
71048;SDS011;58704;53.358;-6.238;2022-12-18T15:20:42;12.98;;;3.08;;
71048;SDS011;58704;53.358;-6.238;2022-12-18T15:23:21;10.43;;;2.95;;
71048;SDS011;58704;53.358;-6.238;2022-12-18T15:26:02;9.45;;;2.95;;
71048;SDS011;58704;53.358;-6.238;2022-12-18T15:28:52;12.07;;;3.17;;
71048;SDS011;58704;53.358;-6.238;2022-12-18T15:31:30;12.70;;;3.40;;
71048;SDS011;58704;53.358;-6.238;2022-12-18T15:36:40;7.20;;;2.28;;
71048;SDS011;58704;53.358;-6.238;2022-12-18T15:39:19;7.15;;;3.83;;
71048;SDS011;58704;53.358;-6.238;2022-12-18T15:41:47;11.10;;;2.80;;
71048;SDS011;58704;53.358;-6.238;2022-12-18T15:44:31;10.82;;;3.70;;
71048;SDS011;58704;53.358;-6.238;2022-12-18T15:47:00;11.88;;;2.90;;
71048;SDS011;58704;53.358;-6.238;2022-12-18T15:50:01;8.40;;;3.57;;
71048;SDS011;58704;53.358;-6.238;2022-12-18T15:52:29;13.68;;;4.47;;
71048;SDS011;58704;53.358;-6.238;2022-12-18T15:54:58;11.07;;;2.95;;
71048;SDS011;58704;53.358;-6.238;2022-12-18T15:57:43;9.27;;;3.58;;
71048;SDS011;58704;53.358;-6.238;2022-12-18T16:00:36;10.68;;;3.22;;
71048;SDS011;58704;53.358;-6.238;2022-12-18T16:03:03;17.43;;;4.60;;
71048;SDS011;58704;53.358;-6.238;2022-12-18T16:05:29;12.75;;;3.53;;
71048;SDS011;58704;53.358;-6.238;2022-12-18T16:07:58;13.13;;;3.30;;
71048;SDS011;58704;53.358;-6.238;2022-12-18T16:10:24;13.40;;;3.22;;
71048;SDS011;58704;53.358;-6.238;2022-12-18T16:12:50;9.27;;;3.30;;
71048;SDS011;58704;53.358;-6.238;2022-12-18T16:15:25;16.37;;;3.90;;
71048;SDS011;58704;53.358;-6.238;2022-12-18T16:18:04;21.85;;;4.20;;
71048;SDS011;58704;53.358;-6.238;2022-12-18T16:20:29;18.73;;;6.90;;
71048;SDS011;58704;53.358;-6.238;2022-12-18T16:22:57;30.67;;;11.10;;
71048;SDS011;58704;53.358;-6.238;2022-12-18T16:25:43;42.60;;;16.83;;
71048;SDS011;58704;53.358;-6.238;2022-12-18T16:28:09;32.15;;;11.70;;
71048;SDS011;58704;53.358;-6.238;2022-12-18T16:30:50;46.53;;;13.07;;
71048;SDS011;58704;53.358;-6.238;2022-12-18T16:33:23;36.53;;;10.07;;
71048;SDS011;58704;53.358;-6.238;2022-12-18T16:35:53;35.75;;;10.40;;
71048;SDS011;58704;53.358;-6.238;2022-12-18T16:38:19;37.05;;;12.07;;
71048;SDS011;58704;53.358;-6.238;2022-12-18T16:40:47;30.30;;;11.05;;
71048;SDS011;58704;53.358;-6.238;2022-12-18T16:43:32;29.35;;;11.88;;
71048;SDS011;58704;53.358;-6.238;2022-12-18T16:46:02;9.13;;;3.87;;
71048;SDS011;58704;53.358;-6.238;2022-12-18T16:48:50;6.43;;;3.17;;
71048;SDS011;58704;53.358;-6.238;2022-12-18T16:51:23;15.65;;;6.90;;
71048;SDS011;58704;53.358;-6.238;2022-12-18T16:53:48;10.97;;;5.67;;
71048;SDS011;58704;53.358;-6.238;2022-12-18T16:56:19;13.55;;;3.53;;
71048;SDS011;58704;53.358;-6.238;2022-12-18T16:58:53;9.88;;;3.63;;